createdAt,value
2018-01-18T00:00:01.630Z,4.87
2018-01-18T00:00:35.098Z,5.40
2018-01-18T00:01:08.786Z,4.85
2018-01-18T00:01:42.447Z,5.53
2018-01-18T00:02:16.115Z,5.43
2018-01-18T00:02:49.812Z,6.15
2018-01-18T00:03:23.466Z,5.55
2018-01-18T00:03:57.159Z,5.57
2018-01-18T00:04:30.810Z,5.12
2018-01-18T00:05:05.248Z,4.87
2018-01-18T00:05:38.903Z,5.95
2018-01-18T00:06:13.338Z,5.28
2018-01-18T00:06:46.997Z,5.45
2018-01-18T00:07:21.421Z,5.28
2018-01-18T00:07:55.103Z,5.43
2018-01-18T00:08:29.578Z,4.97
2018-01-18T00:09:03.053Z,4.87
2018-01-18T00:09:37.513Z,5.22
2018-01-18T00:10:11.217Z,5.45
2018-01-18T00:10:44.869Z,5.68
2018-01-18T00:11:18.834Z,5.20
2018-01-18T00:11:52.578Z,4.80
2018-01-18T00:12:27.763Z,4.32
2018-01-18T00:13:02.253Z,4.43
2018-01-18T00:13:35.909Z,4.55
2018-01-18T00:14:09.566Z,5.00
2018-01-18T00:14:43.618Z,5.03
2018-01-18T00:15:17.284Z,4.55
2018-01-18T00:15:51.888Z,4.05
2018-01-18T00:16:25.555Z,4.12
2018-01-18T00:16:59.997Z,4.28
2018-01-18T00:17:33.650Z,4.30
2018-01-18T00:18:07.338Z,4.60
2018-01-18T00:18:41.118Z,4.25
2018-01-18T00:19:15.560Z,4.43
2018-01-18T00:19:49.982Z,3.78
2018-01-18T00:20:23.636Z,4.80
2018-01-18T00:20:57.281Z,3.10
2018-01-18T00:21:30.956Z,3.70
2018-01-18T00:22:04.610Z,3.83
2018-01-18T00:22:39.049Z,3.20
2018-01-18T00:23:12.741Z,3.33
2018-01-18T00:23:46.411Z,3.62
2018-01-18T00:24:20.067Z,3.85
2018-01-18T00:24:54.489Z,3.50
2018-01-18T00:25:28.916Z,3.80
2018-01-18T00:26:02.587Z,3.72
2018-01-18T00:26:37.018Z,3.83
2018-01-18T00:27:10.687Z,4.20
2018-01-18T00:27:45.124Z,3.60
2018-01-18T00:28:18.831Z,4.93
2018-01-18T00:28:52.507Z,3.22
2018-01-18T00:29:26.195Z,3.90
2018-01-18T00:29:59.864Z,4.25
2018-01-18T00:30:34.292Z,3.85
2018-01-18T00:31:07.936Z,4.43
2018-01-18T00:31:41.649Z,3.62
2018-01-18T00:32:16.339Z,5.05
2018-01-18T00:32:49.991Z,4.00
2018-01-18T00:33:23.696Z,4.20
2018-01-18T00:33:57.361Z,4.22
2018-01-18T00:34:31.034Z,4.53
2018-01-18T00:35:04.385Z,4.40
2018-01-18T00:35:38.808Z,4.22
2018-01-18T00:36:13.353Z,5.10
2018-01-18T00:36:47.837Z,4.87
2018-01-18T00:37:22.245Z,4.40
2018-01-18T00:37:56.009Z,4.90
2018-01-18T00:38:30.478Z,4.87
2018-01-18T00:39:03.286Z,5.20
2018-01-18T00:39:37.897Z,4.65
2018-01-18T00:40:11.554Z,4.45
2018-01-18T00:40:45.234Z,4.72
2018-01-18T00:41:18.898Z,5.10
2018-01-18T00:41:52.547Z,4.80
2018-01-18T00:42:26.214Z,5.22
2018-01-18T00:42:59.859Z,4.75
2018-01-18T00:43:34.301Z,5.25
2018-01-18T00:44:08.147Z,4.72
2018-01-18T00:44:42.554Z,5.10
2018-01-18T00:45:17.157Z,5.18
2018-01-18T00:45:51.594Z,4.35
2018-01-18T00:46:25.250Z,5.35
2018-01-18T00:46:58.890Z,4.60
2018-01-18T00:47:32.551Z,4.90
2018-01-18T00:48:06.212Z,5.07
2018-01-18T00:48:39.894Z,4.90
2018-01-18T00:49:13.581Z,4.80
2018-01-18T00:49:47.246Z,4.87
2018-01-18T00:50:20.915Z,4.82
2018-01-18T00:50:54.663Z,5.50
2018-01-18T00:51:28.312Z,4.62
2018-01-18T00:52:01.971Z,4.65
2018-01-18T00:52:35.289Z,4.57
2018-01-18T00:53:08.941Z,4.90
2018-01-18T00:53:42.754Z,4.82
2018-01-18T00:54:17.351Z,4.90
2018-01-18T00:54:51.107Z,4.93
2018-01-18T00:55:24.778Z,5.25
2018-01-18T00:55:58.437Z,5.70
2018-01-18T00:56:32.107Z,4.97
2018-01-18T00:57:05.746Z,5.40
2018-01-18T00:57:39.404Z,5.18
2018-01-18T00:58:13.057Z,5.00
2018-01-18T00:58:47.502Z,4.68
2018-01-18T00:59:21.201Z,5.62
2018-01-18T00:59:54.843Z,5.45
2018-01-18T01:00:28.942Z,5.25
2018-01-18T01:01:03.357Z,5.78
2018-01-18T01:01:37.008Z,5.90
2018-01-18T01:02:10.665Z,6.53
2018-01-18T01:02:44.325Z,6.28
2018-01-18T01:03:17.989Z,6.55
2018-01-18T01:03:51.701Z,6.10
2018-01-18T01:04:26.134Z,5.55
2018-01-18T01:04:59.806Z,6.18
2018-01-18T01:05:33.480Z,6.30
2018-01-18T01:06:07.897Z,6.70
2018-01-18T01:06:42.316Z,5.68
2018-01-18T01:07:16.281Z,5.85
2018-01-18T01:07:49.953Z,6.25
2018-01-18T01:08:23.616Z,6.70
2018-01-18T01:08:57.322Z,6.10
2018-01-18T01:09:31.149Z,5.85
2018-01-18T01:10:05.569Z,6.40
2018-01-18T01:10:40.018Z,6.05
2018-01-18T01:11:13.699Z,6.68
2018-01-18T01:11:47.358Z,6.45
2018-01-18T01:12:21.028Z,6.50
2018-01-18T01:12:54.670Z,5.50
2018-01-18T01:13:28.346Z,6.07
2018-01-18T01:14:02.038Z,6.60
2018-01-18T01:14:35.694Z,6.40
2018-01-18T01:15:10.132Z,6.97
2018-01-18T01:15:43.788Z,5.57
2018-01-18T01:16:18.206Z,6.15
2018-01-18T01:16:51.856Z,6.28
2018-01-18T01:17:26.338Z,6.47
2018-01-18T01:18:00.034Z,5.95
2018-01-18T01:18:34.409Z,6.82
2018-01-18T01:19:08.114Z,5.40
2018-01-18T01:19:41.786Z,5.97
2018-01-18T01:20:16.272Z,7.35
2018-01-18T01:20:50.707Z,6.25
2018-01-18T01:21:24.371Z,5.75
2018-01-18T01:21:58.790Z,6.05
2018-01-18T01:22:32.479Z,6.30
2018-01-18T01:23:06.306Z,6.57
2018-01-18T01:23:39.958Z,6.12
2018-01-18T01:24:14.416Z,5.80
2018-01-18T01:24:48.093Z,5.75
2018-01-18T01:25:21.746Z,7.07
2018-01-18T01:25:55.409Z,6.70
2018-01-18T01:26:29.085Z,5.80
2018-01-18T01:27:02.749Z,6.22
2018-01-18T01:27:36.099Z,6.15
2018-01-18T01:28:09.771Z,6.30
2018-01-18T01:28:44.195Z,5.60
2018-01-18T01:29:17.902Z,6.45
2018-01-18T01:29:51.564Z,5.53
2018-01-18T01:30:25.995Z,5.70
2018-01-18T01:30:59.691Z,5.60
2018-01-18T01:31:33.549Z,6.30
2018-01-18T01:32:07.973Z,5.87
2018-01-18T01:32:41.689Z,6.47
2018-01-18T01:33:15.417Z,5.15
2018-01-18T01:33:49.831Z,5.40
2018-01-18T01:34:23.537Z,5.68
2018-01-18T01:34:57.971Z,5.40
2018-01-18T01:35:31.637Z,5.20
2018-01-18T01:36:06.052Z,5.57
2018-01-18T01:36:40.491Z,5.30
2018-01-18T01:37:14.259Z,5.55
2018-01-18T01:37:47.939Z,5.97
2018-01-18T01:38:22.349Z,5.20
2018-01-18T01:38:56.021Z,5.20
2018-01-18T01:39:30.437Z,5.45
2018-01-18T01:40:04.891Z,5.40
2018-01-18T01:40:38.562Z,5.82
2018-01-18T01:41:12.224Z,4.87
2018-01-18T01:41:46.851Z,5.62
2018-01-18T01:42:20.175Z,5.07
2018-01-18T01:42:53.971Z,5.97
2018-01-18T01:43:27.641Z,6.18
2018-01-18T01:44:01.979Z,5.00
2018-01-18T01:44:35.664Z,4.80
2018-01-18T01:45:09.320Z,5.65
2018-01-18T01:45:43.004Z,5.32
2018-01-18T01:46:16.665Z,5.22
2018-01-18T01:46:51.113Z,4.70
2018-01-18T01:47:24.764Z,5.78
2018-01-18T01:47:59.171Z,5.12
2018-01-18T01:48:38.721Z,5.65
2018-01-18T01:49:12.383Z,4.35
2018-01-18T01:49:46.864Z,4.93
2018-01-18T01:50:20.534Z,4.53
2018-01-18T01:50:54.201Z,4.43
2018-01-18T01:51:27.863Z,5.25
2018-01-18T01:52:02.289Z,5.07
2018-01-18T01:52:35.976Z,4.43
2018-01-18T01:53:09.648Z,5.85
2018-01-18T01:53:43.320Z,5.43
2018-01-18T01:54:17.742Z,5.03
2018-01-18T01:54:52.186Z,4.62
2018-01-18T01:55:25.838Z,5.00
2018-01-18T01:56:00.271Z,5.72
2018-01-18T01:56:33.920Z,4.85
2018-01-18T01:57:07.581Z,4.93
2018-01-18T01:57:41.243Z,5.80
2018-01-18T01:58:14.924Z,5.22
2018-01-18T01:58:48.582Z,5.32
2018-01-18T01:59:23.024Z,5.50
2018-01-18T01:59:56.723Z,5.45
2018-01-18T02:00:30.373Z,4.00
2018-01-18T02:01:04.471Z,4.95
2018-01-18T02:01:38.890Z,5.00
2018-01-18T02:02:12.556Z,5.00
2018-01-18T02:02:46.277Z,5.50
2018-01-18T02:03:19.949Z,5.10
2018-01-18T02:03:54.396Z,5.15
2018-01-18T02:04:28.044Z,4.22
2018-01-18T02:05:02.506Z,5.10
2018-01-18T02:05:36.899Z,5.40
2018-01-18T02:06:11.630Z,5.00
2018-01-18T02:06:46.035Z,4.80
2018-01-18T02:07:19.698Z,4.90
2018-01-18T02:07:53.369Z,4.20
2018-01-18T02:08:27.825Z,5.30
2018-01-18T02:09:02.313Z,4.65
2018-01-18T02:09:36.369Z,4.32
2018-01-18T02:10:10.816Z,4.72
2018-01-18T02:10:44.150Z,4.82
2018-01-18T02:11:18.463Z,5.10
2018-01-18T02:11:53.888Z,4.75
2018-01-18T02:12:28.083Z,3.87
2018-01-18T02:13:01.984Z,4.93
2018-01-18T02:13:35.846Z,4.68
2018-01-18T02:14:09.515Z,5.45
2018-01-18T02:14:43.262Z,5.10
2018-01-18T02:15:17.714Z,4.60
2018-01-18T02:15:52.774Z,4.80
2018-01-18T02:16:26.517Z,4.90
2018-01-18T02:17:00.184Z,4.65
2018-01-18T02:17:34.626Z,4.45
2018-01-18T02:18:07.955Z,4.75
2018-01-18T02:18:42.406Z,4.70
2018-01-18T02:19:16.069Z,4.22
2018-01-18T02:19:50.490Z,4.12
2018-01-18T02:20:24.191Z,4.32
2018-01-18T02:20:57.853Z,4.32
2018-01-18T02:21:32.297Z,5.07
2018-01-18T02:22:05.976Z,4.72
2018-01-18T02:22:39.638Z,4.60
2018-01-18T02:23:14.077Z,4.47
2018-01-18T02:23:47.735Z,5.15
2018-01-18T02:24:22.174Z,4.25
2018-01-18T02:24:55.833Z,4.45
2018-01-18T02:25:30.292Z,4.47
2018-01-18T02:26:03.973Z,4.18
2018-01-18T02:26:37.638Z,4.87
2018-01-18T02:27:11.312Z,3.72
2018-01-18T02:27:44.968Z,4.25
2018-01-18T02:28:18.679Z,3.80
2018-01-18T02:28:53.099Z,4.53
2018-01-18T02:29:27.551Z,4.30
2018-01-18T02:30:01.225Z,4.57
2018-01-18T02:30:34.916Z,4.20
2018-01-18T02:31:08.577Z,4.85
2018-01-18T02:31:42.352Z,5.15
2018-01-18T02:32:16.777Z,4.55
2018-01-18T02:32:51.303Z,4.82
2018-01-18T02:33:24.953Z,3.92
2018-01-18T02:33:58.749Z,3.75
2018-01-18T02:34:32.632Z,4.55
2018-01-18T02:35:06.297Z,3.87
2018-01-18T02:35:40.002Z,4.68
2018-01-18T02:36:13.662Z,4.87
2018-01-18T02:36:47.335Z,4.50
2018-01-18T02:37:21.105Z,5.20
2018-01-18T02:37:55.539Z,4.82
2018-01-18T02:38:29.202Z,4.43
2018-01-18T02:39:03.255Z,4.65
2018-01-18T02:39:36.949Z,4.35
2018-01-18T02:40:11.772Z,4.43
2018-01-18T02:40:45.483Z,4.90
2018-01-18T02:41:19.924Z,4.72
2018-01-18T02:41:53.582Z,4.60
2018-01-18T02:42:28.018Z,4.70
2018-01-18T02:43:01.683Z,5.05
2018-01-18T02:43:36.121Z,5.00
2018-01-18T02:44:09.773Z,4.75
2018-01-18T02:44:44.286Z,4.95
2018-01-18T02:45:18.733Z,4.30
2018-01-18T02:45:52.436Z,4.55
2018-01-18T02:46:26.329Z,4.10
2018-01-18T02:47:00.487Z,4.90
2018-01-18T02:47:36.569Z,4.85
2018-01-18T02:48:11.131Z,4.43
2018-01-18T02:48:45.566Z,4.90
2018-01-18T02:49:19.257Z,4.80
2018-01-18T02:49:54.360Z,4.57
2018-01-18T02:50:28.043Z,5.10
2018-01-18T02:51:02.502Z,4.60
2018-01-18T02:51:36.357Z,4.80
2018-01-18T02:52:10.782Z,4.12
2018-01-18T02:52:44.442Z,4.72
2018-01-18T02:53:18.298Z,4.40
2018-01-18T02:53:51.955Z,3.92
2018-01-18T02:54:25.626Z,5.32
2018-01-18T02:55:00.234Z,4.65
2018-01-18T02:55:34.662Z,4.18
2018-01-18T02:56:08.364Z,3.72
2018-01-18T02:56:42.022Z,3.85
2018-01-18T02:57:16.447Z,5.03
2018-01-18T02:57:50.109Z,4.72
2018-01-18T02:58:24.535Z,4.43
2018-01-18T02:58:58.202Z,5.47
2018-01-18T02:59:32.630Z,4.30
2018-01-18T03:00:06.295Z,5.57
2018-01-18T03:00:39.942Z,5.30
2018-01-18T03:01:13.441Z,4.75
2018-01-18T03:01:47.086Z,4.10
2018-01-18T03:02:20.733Z,4.37
2018-01-18T03:02:54.395Z,4.53
2018-01-18T03:03:28.071Z,4.93
2018-01-18T03:04:01.755Z,5.00
2018-01-18T03:04:35.426Z,4.03
2018-01-18T03:05:10.043Z,4.57
2018-01-18T03:05:43.694Z,4.62
2018-01-18T03:06:17.386Z,4.37
2018-01-18T03:06:51.041Z,4.10
2018-01-18T03:07:24.701Z,4.20
2018-01-18T03:07:59.152Z,4.55
2018-01-18T03:08:32.805Z,4.03
2018-01-18T03:09:06.461Z,4.32
2018-01-18T03:09:40.118Z,4.78
2018-01-18T03:10:13.785Z,4.80
2018-01-18T03:10:47.463Z,4.40
2018-01-18T03:11:21.165Z,4.53
2018-01-18T03:11:54.826Z,4.25
2018-01-18T03:12:29.245Z,4.40
2018-01-18T03:13:02.903Z,4.37
2018-01-18T03:13:36.575Z,4.05
2018-01-18T03:14:10.243Z,4.50
2018-01-18T03:14:43.904Z,4.12
2018-01-18T03:15:17.555Z,4.40
2018-01-18T03:15:51.213Z,4.75
2018-01-18T03:16:24.582Z,4.90
2018-01-18T03:16:58.242Z,4.15
2018-01-18T03:17:32.653Z,4.35
2018-01-18T03:18:06.312Z,4.50
2018-01-18T03:18:39.957Z,5.25
2018-01-18T03:19:13.618Z,4.32
2018-01-18T03:19:47.270Z,4.70
2018-01-18T03:20:20.976Z,4.80
2018-01-18T03:20:55.402Z,4.47
2018-01-18T03:21:29.107Z,5.05
2018-01-18T03:22:02.768Z,4.15
2018-01-18T03:22:37.185Z,4.10
2018-01-18T03:23:11.629Z,5.05
2018-01-18T03:23:45.311Z,4.85
2018-01-18T03:24:18.984Z,4.15
2018-01-18T03:24:52.665Z,4.45
2018-01-18T03:25:26.312Z,4.65
2018-01-18T03:26:00.006Z,4.70
2018-01-18T03:26:33.696Z,4.80
2018-01-18T03:27:07.353Z,3.80
2018-01-18T03:27:41.019Z,5.68
2018-01-18T03:28:14.730Z,4.50
2018-01-18T03:28:48.530Z,4.20
2018-01-18T03:29:22.208Z,5.12
2018-01-18T03:29:55.864Z,4.70
2018-01-18T03:30:30.279Z,4.55
2018-01-18T03:31:03.601Z,4.45
2018-01-18T03:31:37.289Z,4.05
2018-01-18T03:32:10.933Z,4.25
2018-01-18T03:32:45.366Z,3.87
2018-01-18T03:33:19.031Z,4.70
2018-01-18T03:33:53.454Z,4.28
2018-01-18T03:34:27.108Z,3.80
2018-01-18T03:35:00.754Z,4.28
2018-01-18T03:35:34.406Z,4.80
2018-01-18T03:36:08.814Z,3.35
2018-01-18T03:36:43.263Z,4.10
2018-01-18T03:37:16.912Z,3.10
2018-01-18T03:37:51.327Z,3.60
2018-01-18T03:38:25.752Z,3.22
2018-01-18T03:38:59.620Z,4.12
2018-01-18T03:39:34.053Z,3.28
2018-01-18T03:40:07.709Z,3.30
2018-01-18T03:40:43.162Z,3.60
2018-01-18T03:41:16.829Z,4.05
2018-01-18T03:41:50.495Z,3.60
2018-01-18T03:42:24.145Z,3.97
2018-01-18T03:42:57.806Z,3.95
2018-01-18T03:43:32.297Z,3.80
2018-01-18T03:44:06.756Z,3.90
2018-01-18T03:44:41.333Z,4.22
2018-01-18T03:45:15.734Z,3.40
2018-01-18T03:45:50.149Z,3.62
2018-01-18T03:46:23.805Z,3.75
2018-01-18T03:46:57.481Z,3.83
2018-01-18T03:47:31.138Z,3.40
2018-01-18T03:48:04.890Z,2.90
2018-01-18T03:48:38.533Z,3.85
2018-01-18T03:49:12.177Z,3.65
2018-01-18T03:49:46.590Z,3.33
2018-01-18T03:50:20.365Z,3.17
2018-01-18T03:50:54.793Z,3.30
2018-01-18T03:51:28.458Z,3.70
2018-01-18T03:52:02.135Z,4.00
2018-01-18T03:52:35.782Z,3.78
2018-01-18T03:53:09.443Z,3.35
2018-01-18T03:53:43.849Z,3.05
2018-01-18T03:54:17.509Z,3.35
2018-01-18T03:54:51.158Z,3.37
2018-01-18T03:55:24.811Z,3.33
2018-01-18T03:55:59.242Z,3.20
2018-01-18T03:56:32.919Z,3.10
2018-01-18T03:57:06.601Z,3.00
2018-01-18T03:57:41.028Z,3.80
2018-01-18T03:58:14.698Z,3.50
2018-01-18T03:58:49.134Z,3.60
2018-01-18T03:59:22.790Z,3.45
2018-01-18T03:59:57.205Z,2.62
2018-01-18T04:00:30.874Z,3.08
2018-01-18T04:01:04.524Z,3.00
2018-01-18T04:01:39.127Z,3.33
2018-01-18T04:02:12.815Z,3.42
2018-01-18T04:02:46.465Z,3.25
2018-01-18T04:03:20.883Z,3.35
2018-01-18T04:03:54.547Z,3.20
2018-01-18T04:04:28.210Z,2.95
2018-01-18T04:05:01.870Z,3.12
2018-01-18T04:05:35.556Z,3.00
2018-01-18T04:06:08.559Z,3.08
2018-01-18T04:06:42.230Z,3.10
2018-01-18T04:07:15.912Z,3.20
2018-01-18T04:07:49.237Z,2.95
2018-01-18T04:08:22.710Z,3.35
2018-01-18T04:08:56.169Z,3.22
2018-01-18T04:09:29.830Z,3.30
2018-01-18T04:10:03.581Z,2.90
2018-01-18T04:10:37.237Z,3.10
2018-01-18T04:11:10.893Z,3.35
2018-01-18T04:11:45.339Z,2.78
2018-01-18T04:12:19.034Z,3.60
2018-01-18T04:12:52.681Z,3.53
2018-01-18T04:13:27.110Z,3.40
2018-01-18T04:14:00.773Z,3.67
2018-01-18T04:14:35.198Z,3.33
2018-01-18T04:15:08.858Z,3.08
2018-01-18T04:15:42.502Z,2.87
2018-01-18T04:16:16.163Z,2.90
2018-01-18T04:16:49.815Z,3.12
2018-01-18T04:17:23.518Z,2.97
2018-01-18T04:17:57.182Z,3.33
2018-01-18T04:18:30.830Z,2.95
2018-01-18T04:19:04.489Z,3.45
2018-01-18T04:19:38.904Z,2.97
2018-01-18T04:20:13.325Z,3.30
2018-01-18T04:20:47.039Z,3.50
2018-01-18T04:21:21.610Z,3.12
2018-01-18T04:21:56.022Z,3.20
2018-01-18T04:22:30.490Z,2.78
2018-01-18T04:23:04.137Z,4.03
2018-01-18T04:23:37.794Z,3.30
2018-01-18T04:24:11.471Z,3.17
2018-01-18T04:24:44.794Z,3.12
2018-01-18T04:25:18.458Z,3.10
2018-01-18T04:25:52.888Z,3.28
2018-01-18T04:26:26.555Z,3.03
2018-01-18T04:27:00.983Z,2.72
2018-01-18T04:27:34.672Z,3.30
2018-01-18T04:28:08.319Z,2.90
2018-01-18T04:28:41.973Z,3.45
2018-01-18T04:29:15.962Z,3.60
2018-01-18T04:29:49.623Z,2.75
2018-01-18T04:30:24.051Z,3.15
2018-01-18T04:30:57.707Z,3.25
2018-01-18T04:31:31.359Z,3.58
2018-01-18T04:32:05.014Z,3.05
2018-01-18T04:32:38.708Z,3.20
2018-01-18T04:33:12.367Z,3.37
2018-01-18T04:33:46.011Z,3.35
2018-01-18T04:34:19.675Z,2.72
2018-01-18T04:34:53.344Z,3.08
2018-01-18T04:35:27.775Z,3.22
2018-01-18T04:36:01.429Z,3.60
2018-01-18T04:36:35.081Z,3.30
2018-01-18T04:37:08.754Z,3.00
2018-01-18T04:37:42.700Z,3.42
2018-01-18T04:38:16.373Z,2.85
2018-01-18T04:38:50.030Z,3.40
2018-01-18T04:39:23.679Z,3.87
2018-01-18T04:39:57.766Z,4.30
2018-01-18T04:40:31.428Z,3.85
2018-01-18T04:41:05.086Z,3.75
2018-01-18T04:41:38.562Z,3.55
2018-01-18T04:42:12.214Z,3.53
2018-01-18T04:42:46.221Z,3.40
2018-01-18T04:43:19.877Z,4.05
2018-01-18T04:43:53.553Z,3.33
2018-01-18T04:44:27.206Z,3.83
2018-01-18T04:45:00.873Z,5.90
2018-01-18T04:45:34.534Z,4.95
2018-01-18T04:46:08.201Z,3.97
2018-01-18T04:46:41.862Z,4.30
2018-01-18T04:47:16.274Z,3.42
2018-01-18T04:47:50.249Z,3.90
2018-01-18T04:48:24.667Z,3.35
2018-01-18T04:48:59.094Z,4.22
2018-01-18T04:49:32.754Z,3.55
2018-01-18T04:50:07.256Z,3.55
2018-01-18T04:50:40.936Z,4.07
2018-01-18T04:51:14.595Z,3.95
2018-01-18T04:51:48.254Z,3.60
2018-01-18T04:52:21.914Z,3.45
2018-01-18T04:52:56.367Z,4.28
2018-01-18T04:53:30.018Z,4.20
2018-01-18T04:54:04.447Z,4.05
2018-01-18T04:54:38.130Z,3.40
2018-01-18T04:55:11.790Z,3.33
2018-01-18T04:55:45.447Z,3.70
2018-01-18T04:56:18.781Z,3.25
2018-01-18T04:56:53.218Z,4.28
2018-01-18T04:57:26.883Z,3.40
2018-01-18T04:58:00.884Z,4.03
2018-01-18T04:58:34.550Z,3.47
2018-01-18T04:59:08.215Z,3.70
2018-01-18T04:59:41.929Z,3.42
2018-01-18T05:00:16.346Z,3.53
2018-01-18T05:00:50.765Z,4.43
2018-01-18T05:01:24.433Z,3.45
2018-01-18T05:01:59.304Z,3.55
2018-01-18T05:02:32.958Z,3.65
2018-01-18T05:03:06.648Z,3.60
2018-01-18T05:03:40.310Z,3.15
2018-01-18T05:04:14.137Z,3.05
2018-01-18T05:04:47.803Z,3.75
2018-01-18T05:05:22.228Z,3.60
2018-01-18T05:05:56.672Z,3.40
2018-01-18T05:06:30.322Z,3.80
2018-01-18T05:07:04.801Z,3.60
2018-01-18T05:07:38.605Z,3.75
2018-01-18T05:08:12.295Z,3.90
2018-01-18T05:08:45.963Z,3.62
2018-01-18T05:09:19.614Z,3.85
2018-01-18T05:09:53.266Z,4.07
2018-01-18T05:10:26.648Z,3.75
2018-01-18T05:11:00.313Z,5.05
2018-01-18T05:11:33.974Z,4.00
2018-01-18T05:12:07.633Z,3.67
2018-01-18T05:12:41.285Z,3.87
2018-01-18T05:13:14.953Z,4.28
2018-01-18T05:13:48.611Z,4.50
2018-01-18T05:14:22.282Z,4.07
2018-01-18T05:14:56.709Z,4.05
2018-01-18T05:15:30.366Z,3.45
2018-01-18T05:16:04.031Z,4.10
2018-01-18T05:16:37.675Z,4.37
2018-01-18T05:17:11.332Z,4.32
2018-01-18T05:17:44.984Z,3.62
2018-01-18T05:18:18.665Z,4.12
2018-01-18T05:18:52.314Z,4.50
2018-01-18T05:19:26.756Z,3.50
2018-01-18T05:20:00.409Z,3.65
2018-01-18T05:20:34.854Z,3.90
2018-01-18T05:21:08.493Z,4.07
2018-01-18T05:21:41.828Z,3.55
2018-01-18T05:22:15.501Z,4.70
2018-01-18T05:22:49.257Z,4.05
2018-01-18T05:23:23.049Z,4.00
2018-01-18T05:23:57.995Z,4.50
2018-01-18T05:24:31.662Z,4.00
2018-01-18T05:25:06.098Z,4.00
2018-01-18T05:25:39.857Z,4.05
2018-01-18T05:26:13.532Z,4.40
2018-01-18T05:26:47.193Z,4.20
2018-01-18T05:27:20.852Z,3.87
2018-01-18T05:27:54.542Z,4.25
2018-01-18T05:28:28.036Z,4.62
2018-01-18T05:29:01.712Z,3.92
2018-01-18T05:29:35.375Z,4.03
2018-01-18T05:30:09.026Z,4.32
2018-01-18T05:30:42.706Z,4.05
2018-01-18T05:31:16.367Z,3.90
2018-01-18T05:31:50.058Z,4.62
2018-01-18T05:32:23.723Z,4.75
2018-01-18T05:32:57.387Z,4.50
2018-01-18T05:33:31.091Z,4.35
2018-01-18T05:34:04.434Z,5.12
2018-01-18T05:34:38.092Z,4.32
2018-01-18T05:35:12.519Z,3.83
2018-01-18T05:35:46.320Z,4.47
2018-01-18T05:36:19.969Z,3.95
2018-01-18T05:36:54.394Z,5.32
2018-01-18T05:37:28.063Z,4.35
2018-01-18T05:38:40.395Z,5.35
2018-01-18T05:39:14.060Z,4.45
2018-01-18T05:39:48.484Z,4.60
2018-01-18T05:40:22.890Z,5.25
2018-01-18T05:40:56.559Z,4.20
2018-01-18T05:41:30.998Z,4.55
2018-01-18T05:42:04.441Z,5.40
2018-01-18T05:42:38.114Z,5.50
2018-01-18T05:43:11.784Z,4.62
2018-01-18T05:43:45.473Z,4.20
2018-01-18T05:44:19.140Z,5.55
2018-01-18T05:44:52.773Z,4.65
2018-01-18T05:45:26.146Z,5.53
2018-01-18T05:45:59.789Z,4.32
2018-01-18T05:46:33.453Z,5.80
2018-01-18T05:47:07.887Z,4.93
2018-01-18T05:47:41.548Z,5.00
2018-01-18T05:48:16.006Z,5.07
2018-01-18T05:48:49.702Z,4.82
2018-01-18T05:49:23.422Z,5.50
2018-01-18T05:49:57.074Z,4.87
2018-01-18T05:50:30.812Z,5.55
2018-01-18T05:51:04.147Z,4.93
2018-01-18T05:51:37.799Z,5.03
2018-01-18T05:52:12.249Z,4.90
2018-01-18T05:52:45.929Z,5.40
2018-01-18T05:53:19.595Z,4.53
2018-01-18T05:53:53.100Z,5.15
2018-01-18T05:54:26.773Z,5.30
2018-01-18T05:55:00.439Z,5.57
2018-01-18T05:55:34.870Z,5.22
2018-01-18T05:56:08.558Z,5.20
2018-01-18T05:56:42.030Z,5.20
2018-01-18T05:57:16.276Z,5.53
2018-01-18T05:57:49.584Z,4.68
2018-01-18T05:58:23.229Z,4.70
2018-01-18T05:58:56.907Z,5.30
2018-01-18T05:59:30.570Z,4.80
2018-01-18T06:00:04.339Z,5.30
2018-01-18T06:00:37.997Z,5.03
2018-01-18T06:01:11.645Z,4.85
2018-01-18T06:01:46.148Z,4.80
2018-01-18T06:02:20.562Z,4.10
2018-01-18T06:02:55.018Z,4.05
2018-01-18T06:03:28.551Z,4.90
2018-01-18T06:04:03.009Z,5.03
2018-01-18T06:04:36.680Z,4.30
2018-01-18T06:05:10.369Z,5.70
2018-01-18T06:05:44.033Z,4.62
2018-01-18T06:06:18.485Z,5.03
2018-01-18T06:06:52.196Z,4.72
2018-01-18T06:07:25.890Z,4.57
2018-01-18T06:08:01.073Z,5.30
2018-01-18T06:08:34.750Z,4.47
2018-01-18T06:09:08.462Z,5.22
2018-01-18T06:09:42.332Z,4.90
2018-01-18T06:10:16.762Z,4.60
2018-01-18T06:10:50.413Z,5.65
2018-01-18T06:11:24.847Z,4.40
2018-01-18T06:11:58.510Z,4.50
2018-01-18T06:12:32.963Z,4.78
2018-01-18T06:13:06.615Z,5.28
2018-01-18T06:13:41.046Z,5.15
2018-01-18T06:14:14.712Z,5.32
2018-01-18T06:14:49.183Z,5.55
2018-01-18T06:15:22.868Z,4.87
2018-01-18T06:15:56.524Z,4.82
2018-01-18T06:16:30.188Z,5.07
2018-01-18T06:17:04.630Z,5.05
2018-01-18T06:17:38.576Z,5.80
2018-01-18T06:18:13.019Z,4.95
2018-01-18T06:18:46.710Z,5.10
2018-01-18T06:19:20.386Z,5.53
2018-01-18T06:19:54.854Z,4.93
2018-01-18T06:20:28.511Z,4.72
2018-01-18T06:21:02.158Z,4.30
2018-01-18T06:21:36.606Z,5.12
2018-01-18T06:22:10.268Z,4.90
2018-01-18T06:22:43.935Z,5.00
2018-01-18T06:23:18.382Z,4.80
2018-01-18T06:23:52.064Z,4.80
2018-01-18T06:24:25.718Z,4.82
2018-01-18T06:25:00.034Z,5.43
2018-01-18T06:25:34.482Z,5.22
2018-01-18T06:26:07.830Z,4.90
2018-01-18T06:26:42.271Z,5.18
2018-01-18T06:27:15.925Z,4.40
2018-01-18T06:27:50.367Z,5.22
2018-01-18T06:28:24.056Z,4.70
2018-01-18T06:28:57.711Z,4.78
2018-01-18T06:29:32.146Z,4.90
2018-01-18T06:30:05.830Z,5.30
2018-01-18T06:30:39.484Z,5.15
2018-01-18T06:31:13.148Z,4.47
2018-01-18T06:31:46.809Z,4.80
2018-01-18T06:32:20.470Z,6.10
2018-01-18T06:32:55.038Z,5.90
2018-01-18T06:33:28.699Z,5.45
2018-01-18T06:34:02.372Z,5.55
2018-01-18T06:34:36.035Z,5.93
2018-01-18T06:35:10.133Z,5.85
2018-01-18T06:35:44.584Z,5.22
2018-01-18T06:36:18.241Z,5.60
2018-01-18T06:36:52.714Z,5.28
2018-01-18T06:37:26.383Z,5.35
2018-01-18T06:38:00.051Z,5.25
2018-01-18T06:38:33.716Z,5.18
2018-01-18T06:39:08.144Z,5.55
2018-01-18T06:39:42.001Z,5.68
2018-01-18T06:40:15.671Z,5.90
2018-01-18T06:40:49.335Z,5.82
2018-01-18T06:41:23.014Z,5.97
2018-01-18T06:41:56.710Z,6.30
2018-01-18T06:42:30.370Z,6.00
2018-01-18T06:43:04.459Z,4.90
2018-01-18T06:43:38.907Z,5.80
2018-01-18T06:44:12.589Z,6.07
2018-01-18T06:44:46.249Z,6.22
2018-01-18T06:45:20.686Z,5.65
2018-01-18T06:45:54.363Z,4.85
2018-01-18T06:46:28.032Z,6.05
2018-01-18T06:47:02.484Z,5.57
2018-01-18T06:47:36.162Z,5.12
2018-01-18T06:48:09.825Z,5.32
2018-01-18T06:48:44.261Z,5.78
2018-01-18T06:49:17.913Z,5.37
2018-01-18T06:49:52.349Z,6.03
2018-01-18T06:50:26.018Z,6.22
2018-01-18T06:51:00.437Z,5.80
2018-01-18T06:51:34.095Z,5.30
2018-01-18T06:52:07.784Z,6.00
2018-01-18T06:52:41.485Z,6.10
2018-01-18T06:53:15.928Z,5.85
2018-01-18T06:53:49.410Z,6.30
2018-01-18T06:54:23.072Z,5.70
2018-01-18T06:54:57.513Z,5.93
2018-01-18T06:55:31.186Z,6.70
2018-01-18T06:56:04.849Z,5.45
2018-01-18T06:56:39.295Z,6.78
2018-01-18T06:57:13.047Z,6.35
2018-01-18T06:57:47.475Z,6.15
2018-01-18T06:58:21.117Z,5.82
2018-01-18T06:58:54.772Z,5.57
2018-01-18T06:59:28.429Z,6.00
2018-01-18T07:00:02.866Z,6.85
2018-01-18T07:00:36.531Z,6.90
2018-01-18T07:01:10.962Z,6.72
2018-01-18T07:01:44.629Z,6.57
2018-01-18T07:02:19.081Z,6.22
2018-01-18T07:02:52.745Z,6.53
2018-01-18T07:03:26.403Z,6.75
2018-01-18T07:04:00.907Z,6.80
2018-01-18T07:04:35.356Z,6.18
2018-01-18T07:05:09.024Z,6.43
2018-01-18T07:05:42.703Z,7.18
2018-01-18T07:06:17.141Z,6.40
2018-01-18T07:06:50.811Z,7.07
2018-01-18T07:07:25.265Z,6.55
2018-01-18T07:07:58.936Z,6.20
2018-01-18T07:08:32.590Z,5.80
2018-01-18T07:09:07.035Z,5.97
2018-01-18T07:09:40.711Z,6.70
2018-01-18T07:10:14.387Z,6.12
2018-01-18T07:10:48.077Z,7.20
2018-01-18T07:11:21.746Z,7.40
2018-01-18T07:11:55.615Z,7.30
2018-01-18T07:12:29.298Z,6.70
2018-01-18T07:13:02.962Z,6.78
2018-01-18T07:13:36.624Z,7.12
2018-01-18T07:14:10.312Z,6.87
2018-01-18T07:14:43.966Z,7.15
2018-01-18T07:15:17.660Z,6.50
2018-01-18T07:15:51.335Z,7.10
2018-01-18T07:16:25.026Z,7.18
2018-01-18T07:16:58.681Z,6.78
2018-01-18T07:17:32.387Z,8.30
2018-01-18T07:18:06.121Z,10.43
2018-01-18T07:18:40.552Z,9.68
2018-01-18T07:19:14.218Z,8.20
2018-01-18T07:19:48.669Z,7.40
2018-01-18T07:20:22.338Z,6.95
2018-01-18T07:20:55.668Z,8.02
2018-01-18T07:21:29.330Z,7.72
2018-01-18T07:22:02.998Z,7.22
2018-01-18T07:22:36.683Z,7.60
2018-01-18T07:23:10.373Z,7.72
2018-01-18T07:23:44.805Z,7.25
2018-01-18T07:24:18.475Z,8.07
2018-01-18T07:24:52.139Z,7.20
2018-01-18T07:25:25.800Z,7.18
2018-01-18T07:25:59.301Z,7.43
2018-01-18T07:26:32.978Z,7.30
2018-01-18T07:27:06.633Z,7.47
2018-01-18T07:27:40.322Z,6.68
2018-01-18T07:28:13.981Z,7.50
2018-01-18T07:28:48.423Z,6.85
2018-01-18T07:29:22.077Z,7.32
2018-01-18T07:29:56.516Z,7.20
2018-01-18T07:30:29.848Z,6.50
2018-01-18T07:31:03.513Z,7.50
2018-01-18T07:31:37.174Z,6.90